sensor_id;sensor_type;location;lat;lon;timestamp;P1;durP1;ratioP1;P2;durP2;ratioP2
20802;SDS011;10562;-33.856;151.182;2023-12-20T00:01:08;10.43;;;2.40;;
20802;SDS011;10562;-33.856;151.182;2023-12-20T00:03:39;8.45;;;2.35;;
20802;SDS011;10562;-33.856;151.182;2023-12-20T00:06:09;10.13;;;2.50;;
20802;SDS011;10562;-33.856;151.182;2023-12-20T00:08:40;11.77;;;2.65;;
20802;SDS011;10562;-33.856;151.182;2023-12-20T00:11:12;13.18;;;3.75;;
20802;SDS011;10562;-33.856;151.182;2023-12-20T00:13:44;13.57;;;3.85;;
20802;SDS011;10562;-33.856;151.182;2023-12-20T00:16:15;8.93;;;3.20;;
20802;SDS011;10562;-33.856;151.182;2023-12-20T00:18:46;8.98;;;3.25;;
20802;SDS011;10562;-33.856;151.182;2023-12-20T00:21:17;12.95;;;3.10;;
20802;SDS011;10562;-33.856;151.182;2023-12-20T00:23:47;10.82;;;2.90;;
20802;SDS011;10562;-33.856;151.182;2023-12-20T00:26:18;9.30;;;2.97;;
20802;SDS011;10562;-33.856;151.182;2023-12-20T00:28:51;15.80;;;3.65;;
20802;SDS011;10562;-33.856;151.182;2023-12-20T00:31:21;11.45;;;3.72;;
20802;SDS011;10562;-33.856;151.182;2023-12-20T00:33:52;15.88;;;3.90;;
20802;SDS011;10562;-33.856;151.182;2023-12-20T00:36:23;9.27;;;3.58;;
20802;SDS011;10562;-33.856;151.182;2023-12-20T00:38:53;9.65;;;3.53;;
20802;SDS011;10562;-33.856;151.182;2023-12-20T00:41:24;12.32;;;4.32;;
20802;SDS011;10562;-33.856;151.182;2023-12-20T00:43:57;11.88;;;3.97;;
20802;SDS011;10562;-33.856;151.182;2023-12-20T00:46:27;14.05;;;5.07;;
20802;SDS011;10562;-33.856;151.182;2023-12-20T00:48:58;9.55;;;4.40;;
20802;SDS011;10562;-33.856;151.182;2023-12-20T00:51:29;9.18;;;4.47;;
20802;SDS011;10562;-33.856;151.182;2023-12-20T00:54:00;13.35;;;4.85;;
20802;SDS011;10562;-33.856;151.182;2023-12-20T00:56:30;10.07;;;5.10;;
20802;SDS011;10562;-33.856;151.182;2023-12-20T00:59:03;6.75;;;5.15;;
20802;SDS011;10562;-33.856;151.182;2023-12-20T01:01:34;11.73;;;5.30;;
20802;SDS011;10562;-33.856;151.182;2023-12-20T01:04:05;8.70;;;4.97;;
20802;SDS011;10562;-33.856;151.182;2023-12-20T01:06:35;8.07;;;4.88;;
20802;SDS011;10562;-33.856;151.182;2023-12-20T01:09:06;10.52;;;5.03;;
20802;SDS011;10562;-33.856;151.182;2023-12-20T01:11:37;9.50;;;5.32;;
20802;SDS011;10562;-33.856;151.182;2023-12-20T01:14:10;10.27;;;5.82;;
20802;SDS011;10562;-33.856;151.182;2023-12-20T01:16:41;8.80;;;5.40;;
20802;SDS011;10562;-33.856;151.182;2023-12-20T01:19:12;10.70;;;5.22;;
20802;SDS011;10562;-33.856;151.182;2023-12-20T01:21:43;8.82;;;5.22;;
20802;SDS011;10562;-33.856;151.182;2023-12-20T01:24:13;11.90;;;5.72;;
20802;SDS011;10562;-33.856;151.182;2023-12-20T01:26:44;14.90;;;6.03;;
20802;SDS011;10562;-33.856;151.182;2023-12-20T01:29:17;14.32;;;6.32;;
20802;SDS011;10562;-33.856;151.182;2023-12-20T01:31:48;12.52;;;7.15;;
20802;SDS011;10562;-33.856;151.182;2023-12-20T01:34:18;16.23;;;8.80;;
20802;SDS011;10562;-33.856;151.182;2023-12-20T01:36:49;13.98;;;7.97;;
20802;SDS011;10562;-33.856;151.182;2023-12-20T01:39:20;14.13;;;8.98;;
20802;SDS011;10562;-33.856;151.182;2023-12-20T01:41:51;15.80;;;8.23;;
20802;SDS011;10562;-33.856;151.182;2023-12-20T01:44:24;24.33;;;15.13;;
20802;SDS011;10562;-33.856;151.182;2023-12-20T01:46:54;15.43;;;9.52;;
20802;SDS011;10562;-33.856;151.182;2023-12-20T01:49:25;18.27;;;9.05;;
20802;SDS011;10562;-33.856;151.182;2023-12-20T01:51:57;15.63;;;8.38;;
20802;SDS011;10562;-33.856;151.182;2023-12-20T01:54:28;14.93;;;9.45;;
20802;SDS011;10562;-33.856;151.182;2023-12-20T01:57:00;16.75;;;9.88;;
20802;SDS011;10562;-33.856;151.182;2023-12-20T01:59:34;14.93;;;10.23;;
20802;SDS011;10562;-33.856;151.182;2023-12-20T02:02:05;12.20;;;10.82;;
20802;SDS011;10562;-33.856;151.182;2023-12-20T02:04:38;13.93;;;10.45;;
20802;SDS011;10562;-33.856;151.182;2023-12-20T02:07:09;16.00;;;11.95;;
20802;SDS011;10562;-33.856;151.182;2023-12-20T02:09:40;22.52;;;17.73;;
20802;SDS011;10562;-33.856;151.182;2023-12-20T02:12:12;17.98;;;16.05;;
20802;SDS011;10562;-33.856;151.182;2023-12-20T02:14:45;17.88;;;15.32;;
20802;SDS011;10562;-33.856;151.182;2023-12-20T02:17:16;19.98;;;18.00;;
20802;SDS011;10562;-33.856;151.182;2023-12-20T02:19:47;16.63;;;14.93;;
20802;SDS011;10562;-33.856;151.182;2023-12-20T02:22:20;15.95;;;14.32;;
20802;SDS011;10562;-33.856;151.182;2023-12-20T02:24:50;19.10;;;17.20;;
20802;SDS011;10562;-33.856;151.182;2023-12-20T02:27:21;20.63;;;18.42;;
20802;SDS011;10562;-33.856;151.182;2023-12-20T02:29:53;8.70;;;6.22;;
20802;SDS011;10562;-33.856;151.182;2023-12-20T02:32:24;10.50;;;4.65;;
20802;SDS011;10562;-33.856;151.182;2023-12-20T02:34:55;10.23;;;4.47;;
20802;SDS011;10562;-33.856;151.182;2023-12-20T02:37:28;10.88;;;4.60;;
20802;SDS011;10562;-33.856;151.182;2023-12-20T02:39:59;8.70;;;4.30;;
20802;SDS011;10562;-33.856;151.182;2023-12-20T02:42:30;8.10;;;4.13;;
20802;SDS011;10562;-33.856;151.182;2023-12-20T02:45:01;12.05;;;4.38;;
20802;SDS011;10562;-33.856;151.182;2023-12-20T02:47:32;10.27;;;4.38;;
20802;SDS011;10562;-33.856;151.182;2023-12-20T02:50:03;12.32;;;5.43;;
20802;SDS011;10562;-33.856;151.182;2023-12-20T02:52:35;11.65;;;4.93;;
20802;SDS011;10562;-33.856;151.182;2023-12-20T02:55:06;9.57;;;5.60;;
20802;SDS011;10562;-33.856;151.182;2023-12-20T02:57:38;9.95;;;5.80;;
20802;SDS011;10562;-33.856;151.182;2023-12-20T03:00:10;10.57;;;6.72;;
20802;SDS011;10562;-33.856;151.182;2023-12-20T03:02:41;11.70;;;7.32;;
20802;SDS011;10562;-33.856;151.182;2023-12-20T03:05:11;12.15;;;7.38;;
20802;SDS011;10562;-33.856;151.182;2023-12-20T03:07:44;14.20;;;7.68;;
20802;SDS011;10562;-33.856;151.182;2023-12-20T03:10:15;14.48;;;6.97;;
20802;SDS011;10562;-33.856;151.182;2023-12-20T03:12:47;10.68;;;5.30;;
20802;SDS011;10562;-33.856;151.182;2023-12-20T03:15:17;12.77;;;7.30;;
20802;SDS011;10562;-33.856;151.182;2023-12-20T03:17:48;14.40;;;9.45;;
20802;SDS011;10562;-33.856;151.182;2023-12-20T03:20:19;13.15;;;9.27;;
20802;SDS011;10562;-33.856;151.182;2023-12-20T03:22:52;13.70;;;9.27;;
20802;SDS011;10562;-33.856;151.182;2023-12-20T03:25:22;11.63;;;8.55;;
20802;SDS011;10562;-33.856;151.182;2023-12-20T03:27:53;10.75;;;8.63;;
20802;SDS011;10562;-33.856;151.182;2023-12-20T03:30:24;14.13;;;10.02;;
20802;SDS011;10562;-33.856;151.182;2023-12-20T03:32:55;17.20;;;10.85;;
20802;SDS011;10562;-33.856;151.182;2023-12-20T03:35:25;16.23;;;10.18;;
20802;SDS011;10562;-33.856;151.182;2023-12-20T03:37:58;14.90;;;10.93;;
20802;SDS011;10562;-33.856;151.182;2023-12-20T03:40:36;13.13;;;10.70;;
20802;SDS011;10562;-33.856;151.182;2023-12-20T03:43:07;15.43;;;10.35;;
20802;SDS011;10562;-33.856;151.182;2023-12-20T03:45:38;19.80;;;8.95;;
20802;SDS011;10562;-33.856;151.182;2023-12-20T03:48:09;9.70;;;3.75;;
20802;SDS011;10562;-33.856;151.182;2023-12-20T03:50:40;10.98;;;3.28;;
20802;SDS011;10562;-33.856;151.182;2023-12-20T03:53:13;13.48;;;2.85;;
20802;SDS011;10562;-33.856;151.182;2023-12-20T03:55:44;11.55;;;2.92;;
20802;SDS011;10562;-33.856;151.182;2023-12-20T03:58:14;8.73;;;2.72;;
20802;SDS011;10562;-33.856;151.182;2023-12-20T04:00:45;10.55;;;2.97;;
20802;SDS011;10562;-33.856;151.182;2023-12-20T04:03:16;11.32;;;2.80;;
20802;SDS011;10562;-33.856;151.182;2023-12-20T04:05:47;7.07;;;2.20;;
20802;SDS011;10562;-33.856;151.182;2023-12-20T04:08:20;6.95;;;2.13;;
20802;SDS011;10562;-33.856;151.182;2023-12-20T04:10:51;5.90;;;2.28;;
20802;SDS011;10562;-33.856;151.182;2023-12-20T04:13:22;3.55;;;2.20;;
20802;SDS011;10562;-33.856;151.182;2023-12-20T04:15:54;7.53;;;3.00;;
20802;SDS011;10562;-33.856;151.182;2023-12-20T04:18:27;4.63;;;2.80;;
20802;SDS011;10562;-33.856;151.182;2023-12-20T04:21:02;6.40;;;3.00;;
20802;SDS011;10562;-33.856;151.182;2023-12-20T04:23:36;7.35;;;2.92;;
20802;SDS011;10562;-33.856;151.182;2023-12-20T04:26:07;4.97;;;3.10;;
20802;SDS011;10562;-33.856;151.182;2023-12-20T04:28:40;5.38;;;3.10;;
20802;SDS011;10562;-33.856;151.182;2023-12-20T04:31:11;8.95;;;3.72;;
20802;SDS011;10562;-33.856;151.182;2023-12-20T04:33:43;6.90;;;3.30;;
20802;SDS011;10562;-33.856;151.182;2023-12-20T04:36:14;6.22;;;4.05;;
20802;SDS011;10562;-33.856;151.182;2023-12-20T04:38:47;5.15;;;4.47;;
20802;SDS011;10562;-33.856;151.182;2023-12-20T04:41:18;7.88;;;4.07;;
20802;SDS011;10562;-33.856;151.182;2023-12-20T04:43:49;8.00;;;4.63;;
20802;SDS011;10562;-33.856;151.182;2023-12-20T04:46:20;8.15;;;5.80;;
20802;SDS011;10562;-33.856;151.182;2023-12-20T04:48:51;9.25;;;6.32;;
20802;SDS011;10562;-33.856;151.182;2023-12-20T04:51:21;8.85;;;7.95;;
20802;SDS011;10562;-33.856;151.182;2023-12-20T04:53:54;10.35;;;9.20;;
20802;SDS011;10562;-33.856;151.182;2023-12-20T04:56:25;13.90;;;11.73;;
20802;SDS011;10562;-33.856;151.182;2023-12-20T04:58:56;13.75;;;12.05;;
20802;SDS011;10562;-33.856;151.182;2023-12-20T05:01:26;13.73;;;12.23;;
20802;SDS011;10562;-33.856;151.182;2023-12-20T05:04:01;15.50;;;13.90;;
20802;SDS011;10562;-33.856;151.182;2023-12-20T05:06:32;16.83;;;14.02;;
20802;SDS011;10562;-33.856;151.182;2023-12-20T05:09:05;17.45;;;14.02;;
20802;SDS011;10562;-33.856;151.182;2023-12-20T05:11:36;17.58;;;13.73;;
20802;SDS011;10562;-33.856;151.182;2023-12-20T05:14:07;14.85;;;13.32;;
20802;SDS011;10562;-33.856;151.182;2023-12-20T05:16:38;16.33;;;14.60;;
20802;SDS011;10562;-33.856;151.182;2023-12-20T05:19:09;13.52;;;12.13;;
20802;SDS011;10562;-33.856;151.182;2023-12-20T05:21:40;14.30;;;12.55;;
20802;SDS011;10562;-33.856;151.182;2023-12-20T05:24:13;14.13;;;12.02;;
20802;SDS011;10562;-33.856;151.182;2023-12-20T05:26:43;16.13;;;12.73;;
20802;SDS011;10562;-33.856;151.182;2023-12-20T05:29:14;15.57;;;13.30;;
20802;SDS011;10562;-33.856;151.182;2023-12-20T05:31:45;14.55;;;13.13;;
20802;SDS011;10562;-33.856;151.182;2023-12-20T05:34:16;13.18;;;11.82;;
20802;SDS011;10562;-33.856;151.182;2023-12-20T05:36:46;15.85;;;11.95;;
20802;SDS011;10562;-33.856;151.182;2023-12-20T05:39:19;12.50;;;11.30;;
20802;SDS011;10562;-33.856;151.182;2023-12-20T05:41:50;14.52;;;9.13;;
20802;SDS011;10562;-33.856;151.182;2023-12-20T05:44:21;10.98;;;7.93;;
20802;SDS011;10562;-33.856;151.182;2023-12-20T05:46:51;15.02;;;8.93;;
20802;SDS011;10562;-33.856;151.182;2023-12-20T05:49:22;10.55;;;7.95;;
20802;SDS011;10562;-33.856;151.182;2023-12-20T05:51:53;11.40;;;8.80;;
20802;SDS011;10562;-33.856;151.182;2023-12-20T05:54:26;11.20;;;9.50;;
20802;SDS011;10562;-33.856;151.182;2023-12-20T05:56:57;11.63;;;10.23;;
20802;SDS011;10562;-33.856;151.182;2023-12-20T05:59:28;13.82;;;11.95;;
20802;SDS011;10562;-33.856;151.182;2023-12-20T06:01:58;14.52;;;9.82;;
20802;SDS011;10562;-33.856;151.182;2023-12-20T06:04:29;17.35;;;10.80;;
20802;SDS011;10562;-33.856;151.182;2023-12-20T06:07:00;13.80;;;9.95;;
20802;SDS011;10562;-33.856;151.182;2023-12-20T06:09:33;12.32;;;10.63;;
20802;SDS011;10562;-33.856;151.182;2023-12-20T06:12:03;15.05;;;10.75;;
20802;SDS011;10562;-33.856;151.182;2023-12-20T06:14:34;17.38;;;11.55;;
20802;SDS011;10562;-33.856;151.182;2023-12-20T06:17:05;18.02;;;11.75;;
20802;SDS011;10562;-33.856;151.182;2023-12-20T06:19:36;16.92;;;15.30;;
20802;SDS011;10562;-33.856;151.182;2023-12-20T06:22:08;13.18;;;8.55;;
20802;SDS011;10562;-33.856;151.182;2023-12-20T06:24:41;13.43;;;10.43;;
20802;SDS011;10562;-33.856;151.182;2023-12-20T06:27:12;14.82;;;11.82;;
20802;SDS011;10562;-33.856;151.182;2023-12-20T06:29:43;14.68;;;12.35;;
20802;SDS011;10562;-33.856;151.182;2023-12-20T06:32:13;18.27;;;14.43;;
20802;SDS011;10562;-33.856;151.182;2023-12-20T06:34:44;12.38;;;11.10;;
20802;SDS011;10562;-33.856;151.182;2023-12-20T06:37:17;15.82;;;13.85;;
20802;SDS011;10562;-33.856;151.182;2023-12-20T06:39:51;17.15;;;14.20;;
20802;SDS011;10562;-33.856;151.182;2023-12-20T06:42:22;18.00;;;15.32;;
20802;SDS011;10562;-33.856;151.182;2023-12-20T06:44:53;17.05;;;15.38;;
20802;SDS011;10562;-33.856;151.182;2023-12-20T06:47:24;25.20;;;17.77;;
20802;SDS011;10562;-33.856;151.182;2023-12-20T06:49:55;19.48;;;16.10;;
20802;SDS011;10562;-33.856;151.182;2023-12-20T06:52:25;20.20;;;17.90;;
20802;SDS011;10562;-33.856;151.182;2023-12-20T06:54:58;26.48;;;19.48;;
20802;SDS011;10562;-33.856;151.182;2023-12-20T06:57:29;20.15;;;17.77;;
20802;SDS011;10562;-33.856;151.182;2023-12-20T07:00:01;21.50;;;18.60;;
20802;SDS011;10562;-33.856;151.182;2023-12-20T07:02:32;21.13;;;19.23;;
20802;SDS011;10562;-33.856;151.182;2023-12-20T07:05:03;20.95;;;18.95;;
20802;SDS011;10562;-33.856;151.182;2023-12-20T07:07:34;20.27;;;17.80;;
20802;SDS011;10562;-33.856;151.182;2023-12-20T07:10:07;21.65;;;17.40;;
20802;SDS011;10562;-33.856;151.182;2023-12-20T07:12:38;19.42;;;17.40;;
20802;SDS011;10562;-33.856;151.182;2023-12-20T07:15:10;17.30;;;14.05;;
20802;SDS011;10562;-33.856;151.182;2023-12-20T07:17:41;17.05;;;13.38;;
20802;SDS011;10562;-33.856;151.182;2023-12-20T07:20:12;18.38;;;11.63;;
20802;SDS011;10562;-33.856;151.182;2023-12-20T07:22:43;15.27;;;12.00;;
20802;SDS011;10562;-33.856;151.182;2023-12-20T07:25:16;17.98;;;11.20;;
20802;SDS011;10562;-33.856;151.182;2023-12-20T07:27:46;12.07;;;9.75;;
20802;SDS011;10562;-33.856;151.182;2023-12-20T07:30:17;16.13;;;9.60;;
20802;SDS011;10562;-33.856;151.182;2023-12-20T07:32:48;19.95;;;11.45;;
20802;SDS011;10562;-33.856;151.182;2023-12-20T07:35:19;18.52;;;10.88;;
20802;SDS011;10562;-33.856;151.182;2023-12-20T07:37:49;15.98;;;10.68;;
20802;SDS011;10562;-33.856;151.182;2023-12-20T07:40:22;15.63;;;6.85;;
20802;SDS011;10562;-33.856;151.182;2023-12-20T07:42:53;11.60;;;7.00;;
20802;SDS011;10562;-33.856;151.182;2023-12-20T07:45:24;10.05;;;5.97;;
20802;SDS011;10562;-33.856;151.182;2023-12-20T07:47:55;12.48;;;5.55;;
20802;SDS011;10562;-33.856;151.182;2023-12-20T07:50:25;11.75;;;4.82;;
20802;SDS011;10562;-33.856;151.182;2023-12-20T07:52:56;10.40;;;4.68;;
20802;SDS011;10562;-33.856;151.182;2023-12-20T07:55:29;13.75;;;5.10;;
20802;SDS011;10562;-33.856;151.182;2023-12-20T07:58:00;10.65;;;4.35;;
20802;SDS011;10562;-33.856;151.182;2023-12-20T08:00:31;10.18;;;4.55;;
20802;SDS011;10562;-33.856;151.182;2023-12-20T08:03:02;8.88;;;4.22;;
20802;SDS011;10562;-33.856;151.182;2023-12-20T08:05:33;8.18;;;3.30;;
20802;SDS011;10562;-33.856;151.182;2023-12-20T08:08:04;10.10;;;3.40;;
20802;SDS011;10562;-33.856;151.182;2023-12-20T08:10:37;11.27;;;3.75;;
20802;SDS011;10562;-33.856;151.182;2023-12-20T08:13:08;10.45;;;3.40;;
20802;SDS011;10562;-33.856;151.182;2023-12-20T08:15:38;12.85;;;3.30;;
20802;SDS011;10562;-33.856;151.182;2023-12-20T08:18:09;11.82;;;3.08;;
20802;SDS011;10562;-33.856;151.182;2023-12-20T08:20:40;10.23;;;3.33;;
20802;SDS011;10562;-33.856;151.182;2023-12-20T08:23:11;11.93;;;3.50;;
20802;SDS011;10562;-33.856;151.182;2023-12-20T08:25:44;13.80;;;3.45;;
20802;SDS011;10562;-33.856;151.182;2023-12-20T08:28:15;9.18;;;3.60;;
20802;SDS011;10562;-33.856;151.182;2023-12-20T08:30:46;8.38;;;4.10;;
20802;SDS011;10562;-33.856;151.182;2023-12-20T08:33:19;8.85;;;3.65;;
20802;SDS011;10562;-33.856;151.182;2023-12-20T08:35:50;9.05;;;4.05;;
20802;SDS011;10562;-33.856;151.182;2023-12-20T08:38:21;9.40;;;3.90;;
20802;SDS011;10562;-33.856;151.182;2023-12-20T08:40:53;11.07;;;4.28;;
20802;SDS011;10562;-33.856;151.182;2023-12-20T08:43:24;12.60;;;3.92;;
20802;SDS011;10562;-33.856;151.182;2023-12-20T08:45:55;12.98;;;4.10;;
20802;SDS011;10562;-33.856;151.182;2023-12-20T08:48:25;14.25;;;4.43;;
20802;SDS011;10562;-33.856;151.182;2023-12-20T08:50:56;8.70;;;4.07;;
20802;SDS011;10562;-33.856;151.182;2023-12-20T08:53:27;9.88;;;4.80;;
20802;SDS011;10562;-33.856;151.182;2023-12-20T08:56:00;10.50;;;5.25;;
20802;SDS011;10562;-33.856;151.182;2023-12-20T08:58:31;12.57;;;4.93;;
20802;SDS011;10562;-33.856;151.182;2023-12-20T09:01:02;13.02;;;4.85;;
20802;SDS011;10562;-33.856;151.182;2023-12-20T09:03:33;14.35;;;5.43;;
20802;SDS011;10562;-33.856;151.182;2023-12-20T09:06:04;8.65;;;4.60;;
20802;SDS011;10562;-33.856;151.182;2023-12-20T09:08:35;8.27;;;4.85;;
20802;SDS011;10562;-33.856;151.182;2023-12-20T09:11:08;11.52;;;4.70;;
20802;SDS011;10562;-33.856;151.182;2023-12-20T09:13:38;9.05;;;4.75;;
20802;SDS011;10562;-33.856;151.182;2023-12-20T09:16:10;9.13;;;5.45;;
20802;SDS011;10562;-33.856;151.182;2023-12-20T09:18:42;12.23;;;4.80;;
20802;SDS011;10562;-33.856;151.182;2023-12-20T09:21:12;12.02;;;5.93;;
20802;SDS011;10562;-33.856;151.182;2023-12-20T09:23:43;8.57;;;4.90;;
20802;SDS011;10562;-33.856;151.182;2023-12-20T09:26:16;14.30;;;5.57;;
20802;SDS011;10562;-33.856;151.182;2023-12-20T09:28:47;14.55;;;5.30;;
20802;SDS011;10562;-33.856;151.182;2023-12-20T09:31:18;9.10;;;5.30;;
20802;SDS011;10562;-33.856;151.182;2023-12-20T09:33:48;9.93;;;5.80;;
20802;SDS011;10562;-33.856;151.182;2023-12-20T09:36:19;16.45;;;6.15;;
20802;SDS011;10562;-33.856;151.182;2023-12-20T09:38:50;9.80;;;6.13;;
20802;SDS011;10562;-33.856;151.182;2023-12-20T09:41:23;8.85;;;6.00;;
20802;SDS011;10562;-33.856;151.182;2023-12-20T09:43:55;12.27;;;7.30;;
20802;SDS011;10562;-33.856;151.182;2023-12-20T09:46:29;11.60;;;8.25;;
20802;SDS011;10562;-33.856;151.182;2023-12-20T09:49:03;10.48;;;7.97;;
20802;SDS011;10562;-33.856;151.182;2023-12-20T09:51:35;18.92;;;9.23;;
20802;SDS011;10562;-33.856;151.182;2023-12-20T09:54:06;15.38;;;10.10;;
20802;SDS011;10562;-33.856;151.182;2023-12-20T09:56:40;14.93;;;10.45;;
20802;SDS011;10562;-33.856;151.182;2023-12-20T09:59:11;11.75;;;10.15;;
20802;SDS011;10562;-33.856;151.182;2023-12-20T10:01:42;11.77;;;10.20;;
20802;SDS011;10562;-33.856;151.182;2023-12-20T10:04:13;15.45;;;10.15;;
20802;SDS011;10562;-33.856;151.182;2023-12-20T10:06:44;15.10;;;10.77;;
20802;SDS011;10562;-33.856;151.182;2023-12-20T10:09:15;13.50;;;12.10;;
20802;SDS011;10562;-33.856;151.182;2023-12-20T10:11:47;15.68;;;14.18;;
20802;SDS011;10562;-33.856;151.182;2023-12-20T10:14:18;16.77;;;12.88;;
20802;SDS011;10562;-33.856;151.182;2023-12-20T10:16:51;18.63;;;13.88;;
20802;SDS011;10562;-33.856;151.182;2023-12-20T10:19:22;17.73;;;14.10;;
20802;SDS011;10562;-33.856;151.182;2023-12-20T10:21:52;17.52;;;14.80;;
20802;SDS011;10562;-33.856;151.182;2023-12-20T10:24:24;15.98;;;14.32;;
20802;SDS011;10562;-33.856;151.182;2023-12-20T10:27:08;15.45;;;13.85;;
20802;SDS011;10562;-33.856;151.182;2023-12-20T10:29:38;17.10;;;15.38;;
20802;SDS011;10562;-33.856;151.182;2023-12-20T10:32:25;18.52;;;14.80;;
20802;SDS011;10562;-33.856;151.182;2023-12-20T10:34:56;20.83;;;15.30;;
20802;SDS011;10562;-33.856;151.182;2023-12-20T10:37:27;20.73;;;18.63;;
20802;SDS011;10562;-33.856;151.182;2023-12-20T10:39:58;22.20;;;19.17;;
20802;SDS011;10562;-33.856;151.182;2023-12-20T10:42:34;20.05;;;18.15;;
20802;SDS011;10562;-33.856;151.182;2023-12-20T10:45:07;20.70;;;18.60;;
20802;SDS011;10562;-33.856;151.182;2023-12-20T10:47:38;21.33;;;19.13;;
20802;SDS011;10562;-33.856;151.182;2023-12-20T10:50:10;22.17;;;20.02;;
20802;SDS011;10562;-33.856;151.182;2023-12-20T10:52:41;24.55;;;21.88;;
20802;SDS011;10562;-33.856;151.182;2023-12-20T10:55:13;22.02;;;19.85;;
20802;SDS011;10562;-33.856;151.182;2023-12-20T10:57:46;22.40;;;20.27;;
20802;SDS011;10562;-33.856;151.182;2023-12-20T11:00:19;26.20;;;20.65;;
20802;SDS011;10562;-33.856;151.182;2023-12-20T11:02:52;22.48;;;20.15;;
20802;SDS011;10562;-33.856;151.182;2023-12-20T11:05:26;18.80;;;17.10;;
20802;SDS011;10562;-33.856;151.182;2023-12-20T11:08:06;20.67;;;17.35;;
20802;SDS011;10562;-33.856;151.182;2023-12-20T11:10:42;19.90;;;16.88;;
20802;SDS011;10562;-33.856;151.182;2023-12-20T11:13:22;21.55;;;15.18;;
20802;SDS011;10562;-33.856;151.182;2023-12-20T11:15:57;17.52;;;15.73;;
20802;SDS011;10562;-33.856;151.182;2023-12-20T11:18:29;15.70;;;12.90;;
20802;SDS011;10562;-33.856;151.182;2023-12-20T11:21:00;15.82;;;14.23;;
20802;SDS011;10562;-33.856;151.182;2023-12-20T11:23:33;14.80;;;13.38;;
20802;SDS011;10562;-33.856;151.182;2023-12-20T11:26:03;15.50;;;13.93;;
20802;SDS011;10562;-33.856;151.182;2023-12-20T11:28:36;13.88;;;12.38;;
20802;SDS011;10562;-33.856;151.182;2023-12-20T11:31:07;13.05;;;11.75;;
20802;SDS011;10562;-33.856;151.182;2023-12-20T11:33:43;13.73;;;11.60;;
20802;SDS011;10562;-33.856;151.182;2023-12-20T11:36:18;26.25;;;24.05;;
20802;SDS011;10562;-33.856;151.182;2023-12-20T11:38:54;13.13;;;10.18;;
20802;SDS011;10562;-33.856;151.182;2023-12-20T11:41:26;13.95;;;9.50;;
20802;SDS011;10562;-33.856;151.182;2023-12-20T11:43:59;16.30;;;10.02;;
20802;SDS011;10562;-33.856;151.182;2023-12-20T11:46:30;14.48;;;11.20;;
20802;SDS011;10562;-33.856;151.182;2023-12-20T11:49:01;14.45;;;10.70;;
20802;SDS011;10562;-33.856;151.182;2023-12-20T11:51:32;21.92;;;19.63;;
20802;SDS011;10562;-33.856;151.182;2023-12-20T11:54:03;11.18;;;9.95;;
20802;SDS011;10562;-33.856;151.182;2023-12-20T11:56:35;13.13;;;11.65;;
20802;SDS011;10562;-33.856;151.182;2023-12-20T11:59:10;12.15;;;10.85;;
20802;SDS011;10562;-33.856;151.182;2023-12-20T12:01:42;14.65;;;12.43;;
20802;SDS011;10562;-33.856;151.182;2023-12-20T12:04:18;10.20;;;9.02;;
20802;SDS011;10562;-33.856;151.182;2023-12-20T12:06:49;10.95;;;9.32;;
20802;SDS011;10562;-33.856;151.182;2023-12-20T12:09:20;14.82;;;13.35;;
20802;SDS011;10562;-33.856;151.182;2023-12-20T12:11:51;14.60;;;13.07;;
20802;SDS011;10562;-33.856;151.182;2023-12-20T12:14:23;10.45;;;9.35;;
20802;SDS011;10562;-33.856;151.182;2023-12-20T12:16:54;9.82;;;8.82;;
20802;SDS011;10562;-33.856;151.182;2023-12-20T12:19:25;9.75;;;8.68;;
20802;SDS011;10562;-33.856;151.182;2023-12-20T12:22:04;10.48;;;8.23;;
20802;SDS011;10562;-33.856;151.182;2023-12-20T12:24:38;16.13;;;14.65;;
20802;SDS011;10562;-33.856;151.182;2023-12-20T12:27:10;8.68;;;7.80;;
20802;SDS011;10562;-33.856;151.182;2023-12-20T12:30:01;9.52;;;8.73;;
20802;SDS011;10562;-33.856;151.182;2023-12-20T12:32:35;10.20;;;9.15;;
20802;SDS011;10562;-33.856;151.182;2023-12-20T12:35:07;9.23;;;8.32;;
20802;SDS011;10562;-33.856;151.182;2023-12-20T12:37:38;9.23;;;8.30;;
20802;SDS011;10562;-33.856;151.182;2023-12-20T12:40:10;23.58;;;21.58;;
20802;SDS011;10562;-33.856;151.182;2023-12-20T12:42:41;8.85;;;7.95;;
20802;SDS011;10562;-33.856;151.182;2023-12-20T12:45:14;8.98;;;8.18;;
20802;SDS011;10562;-33.856;151.182;2023-12-20T12:47:45;9.60;;;8.77;;
20802;SDS011;10562;-33.856;151.182;2023-12-20T12:50:16;8.65;;;7.85;;
20802;SDS011;10562;-33.856;151.182;2023-12-20T12:52:47;9.55;;;8.55;;
20802;SDS011;10562;-33.856;151.182;2023-12-20T12:55:18;9.98;;;9.07;;
20802;SDS011;10562;-33.856;151.182;2023-12-20T12:57:49;10.10;;;9.25;;
20802;SDS011;10562;-33.856;151.182;2023-12-20T13:00:21;9.90;;;9.00;;
20802;SDS011;10562;-33.856;151.182;2023-12-20T13:02:52;10.43;;;9.07;;
20802;SDS011;10562;-33.856;151.182;2023-12-20T13:05:23;9.70;;;8.80;;
20802;SDS011;10562;-33.856;151.182;2023-12-20T13:07:54;10.55;;;9.38;;
20802;SDS011;10562;-33.856;151.182;2023-12-20T13:10:25;15.40;;;13.82;;
20802;SDS011;10562;-33.856;151.182;2023-12-20T13:12:56;9.73;;;8.73;;
20802;SDS011;10562;-33.856;151.182;2023-12-20T13:15:28;8.10;;;7.30;;
20802;SDS011;10562;-33.856;151.182;2023-12-20T13:17:59;9.10;;;8.15;;
20802;SDS011;10562;-33.856;151.182;2023-12-20T13:20:30;9.20;;;7.75;;
20802;SDS011;10562;-33.856;151.182;2023-12-20T13:23:01;8.50;;;6.60;;
20802;SDS011;10562;-33.856;151.182;2023-12-20T13:25:32;10.18;;;6.43;;
20802;SDS011;10562;-33.856;151.182;2023-12-20T13:28:03;7.20;;;6.40;;
20802;SDS011;10562;-33.856;151.182;2023-12-20T13:30:36;6.03;;;5.53;;
20802;SDS011;10562;-33.856;151.182;2023-12-20T13:33:07;7.97;;;7.25;;
20802;SDS011;10562;-33.856;151.182;2023-12-20T13:35:38;9.25;;;6.32;;
20802;SDS011;10562;-33.856;151.182;2023-12-20T13:38:09;8.70;;;5.63;;
20802;SDS011;10562;-33.856;151.182;2023-12-20T13:40:41;7.07;;;6.38;;
20802;SDS011;10562;-33.856;151.182;2023-12-20T13:43:12;6.75;;;5.18;;
20802;SDS011;10562;-33.856;151.182;2023-12-20T13:45:48;5.63;;;5.10;;
20802;SDS011;10562;-33.856;151.182;2023-12-20T13:48:19;7.13;;;6.13;;
20802;SDS011;10562;-33.856;151.182;2023-12-20T13:50:50;6.65;;;6.05;;
20802;SDS011;10562;-33.856;151.182;2023-12-20T13:53:21;6.18;;;5.68;;
20802;SDS011;10562;-33.856;151.182;2023-12-20T13:55:51;19.33;;;17.83;;
20802;SDS011;10562;-33.856;151.182;2023-12-20T13:58:22;6.40;;;5.90;;
20802;SDS011;10562;-33.856;151.182;2023-12-20T14:00:55;6.15;;;5.55;;
20802;SDS011;10562;-33.856;151.182;2023-12-20T14:03:25;6.07;;;5.47;;
20802;SDS011;10562;-33.856;151.182;2023-12-20T14:05:57;5.93;;;5.30;;
20802;SDS011;10562;-33.856;151.182;2023-12-20T14:08:28;7.10;;;6.40;;
20802;SDS011;10562;-33.856;151.182;2023-12-20T14:10:59;8.05;;;5.88;;
20802;SDS011;10562;-33.856;151.182;2023-12-20T14:13:30;7.63;;;5.78;;
20802;SDS011;10562;-33.856;151.182;2023-12-20T14:16:03;6.43;;;5.20;;
20802;SDS011;10562;-33.856;151.182;2023-12-20T14:18:33;7.07;;;6.47;;
20802;SDS011;10562;-33.856;151.182;2023-12-20T14:21:04;6.75;;;5.90;;